sensor_id;sensor_type;location;lat;lon;timestamp;pressure;altitude;pressure_sealevel;temperature;humidity
69127;BME280;56688;50.234;19.292;2023-04-19T00:02:10;98727.09;;;11.22;83.46
69127;BME280;56688;50.234;19.292;2023-04-19T00:04:39;98721.33;;;11.22;83.41
69127;BME280;56688;50.234;19.292;2023-04-19T00:07:06;98719.15;;;11.23;83.26
69127;BME280;56688;50.234;19.292;2023-04-19T00:09:33;98716.58;;;11.20;83.50
69127;BME280;56688;50.234;19.292;2023-04-19T00:12:00;98712.98;;;11.22;83.29
69127;BME280;56688;50.234;19.292;2023-04-19T00:14:27;98709.79;;;11.25;83.57
69127;BME280;56688;50.234;19.292;2023-04-19T00:16:54;98710.11;;;11.25;83.10
69127;BME280;56688;50.234;19.292;2023-04-19T00:19:21;98706.23;;;11.24;83.31
69127;BME280;56688;50.234;19.292;2023-04-19T00:21:48;98701.33;;;11.19;83.27
69127;BME280;56688;50.234;19.292;2023-04-19T00:24:16;98697.16;;;11.14;83.31
69127;BME280;56688;50.234;19.292;2023-04-19T00:26:43;98698.39;;;11.14;83.40
69127;BME280;56688;50.234;19.292;2023-04-19T00:29:10;98694.79;;;11.12;83.48
69127;BME280;56688;50.234;19.292;2023-04-19T00:31:37;98693.86;;;11.10;83.63
69127;BME280;56688;50.234;19.292;2023-04-19T00:34:06;98692.02;;;11.14;83.69
69127;BME280;56688;50.234;19.292;2023-04-19T00:36:32;98689.77;;;11.17;83.92
69127;BME280;56688;50.234;19.292;2023-04-19T00:39:02;98687.29;;;11.14;83.80
69127;BME280;56688;50.234;19.292;2023-04-19T00:41:29;98684.81;;;11.11;83.69
69127;BME280;56688;50.234;19.292;2023-04-19T00:43:56;98679.59;;;11.08;83.60
69127;BME280;56688;50.234;19.292;2023-04-19T00:46:23;98676.46;;;11.04;83.45
69127;BME280;56688;50.234;19.292;2023-04-19T00:48:50;98677.25;;;11.02;83.37
69127;BME280;56688;50.234;19.292;2023-04-19T00:51:18;98673.69;;;11.03;83.20
69127;BME280;56688;50.234;19.292;2023-04-19T00:53:45;98672.89;;;11.01;83.08
69127;BME280;56688;50.234;19.292;2023-04-19T00:58:55;98668.16;;;10.95;82.99
69127;BME280;56688;50.234;19.292;2023-04-19T01:01:22;98667.80;;;10.92;82.89
69127;BME280;56688;50.234;19.292;2023-04-19T01:03:49;98661.86;;;10.88;82.56
69127;BME280;56688;50.234;19.292;2023-04-19T01:06:19;98661.73;;;10.81;82.59
69127;BME280;56688;50.234;19.292;2023-04-19T01:08:46;98658.38;;;10.80;82.87
69127;BME280;56688;50.234;19.292;2023-04-19T01:11:13;98656.05;;;10.80;83.13
69127;BME280;56688;50.234;19.292;2023-04-19T01:13:42;98656.29;;;10.82;83.10
69127;BME280;56688;50.234;19.292;2023-04-19T01:16:09;98649.06;;;10.83;83.00
69127;BME280;56688;50.234;19.292;2023-04-19T01:18:36;98650.94;;;10.79;82.70
69127;BME280;56688;50.234;19.292;2023-04-19T01:21:06;98647.77;;;10.76;82.61
69127;BME280;56688;50.234;19.292;2023-04-19T01:23:35;98644.80;;;10.76;82.54
69127;BME280;56688;50.234;19.292;2023-04-19T01:26:02;98645.26;;;10.75;82.38
69127;BME280;56688;50.234;19.292;2023-04-19T01:28:29;98641.77;;;10.76;82.50
69127;BME280;56688;50.234;19.292;2023-04-19T01:30:56;98639.29;;;10.78;82.42
69127;BME280;56688;50.234;19.292;2023-04-19T01:33:25;98632.41;;;10.78;82.04
69127;BME280;56688;50.234;19.292;2023-04-19T01:35:51;98630.23;;;10.78;81.98
69127;BME280;56688;50.234;19.292;2023-04-19T01:38:18;98628.88;;;10.78;81.93
69127;BME280;56688;50.234;19.292;2023-04-19T01:40:45;98629.13;;;10.74;81.55
69127;BME280;56688;50.234;19.292;2023-04-19T01:43:13;98627.59;;;10.71;81.49
69127;BME280;56688;50.234;19.292;2023-04-19T01:45:40;98626.30;;;10.69;81.47
69127;BME280;56688;50.234;19.292;2023-04-19T01:48:07;98619.88;;;10.67;81.44
69127;BME280;56688;50.234;19.292;2023-04-19T01:50:34;98613.11;;;10.64;81.05
69127;BME280;56688;50.234;19.292;2023-04-19T01:53:03;98605.08;;;10.61;81.25
69127;BME280;56688;50.234;19.292;2023-04-19T01:55:31;98605.37;;;10.59;81.00
69127;BME280;56688;50.234;19.292;2023-04-19T01:57:58;98605.64;;;10.54;81.00
69127;BME280;56688;50.234;19.292;2023-04-19T02:00:24;98611.04;;;10.50;81.14
69127;BME280;56688;50.234;19.292;2023-04-19T02:02:51;98608.86;;;10.46;81.13
69127;BME280;56688;50.234;19.292;2023-04-19T02:05:19;98601.52;;;10.43;81.44
69127;BME280;56688;50.234;19.292;2023-04-19T02:07:45;98599.67;;;10.44;81.53
69127;BME280;56688;50.234;19.292;2023-04-19T02:10:12;98599.17;;;10.44;81.60
69127;BME280;56688;50.234;19.292;2023-04-19T02:12:40;98598.89;;;10.43;81.56
69127;BME280;56688;50.234;19.292;2023-04-19T02:15:08;98593.48;;;10.43;81.62
69127;BME280;56688;50.234;19.292;2023-04-19T02:17:35;98596.23;;;10.40;81.47
69127;BME280;56688;50.234;19.292;2023-04-19T02:20:02;98599.21;;;10.38;81.38
69127;BME280;56688;50.234;19.292;2023-04-19T02:22:30;98595.64;;;10.35;81.35
69127;BME280;56688;50.234;19.292;2023-04-19T02:24:58;98595.33;;;10.34;81.50
69127;BME280;56688;50.234;19.292;2023-04-19T02:27:26;98599.27;;;10.34;81.35
69127;BME280;56688;50.234;19.292;2023-04-19T02:29:53;98597.61;;;10.33;81.28
69127;BME280;56688;50.234;19.292;2023-04-19T02:32:20;98597.48;;;10.33;81.42
69127;BME280;56688;50.234;19.292;2023-04-19T02:34:47;98591.76;;;10.30;81.24
69127;BME280;56688;50.234;19.292;2023-04-19T02:37:14;98592.41;;;10.27;81.09
69127;BME280;56688;50.234;19.292;2023-04-19T02:39:40;98588.84;;;10.23;81.15
69127;BME280;56688;50.234;19.292;2023-04-19T02:42:08;98587.65;;;10.21;81.60
69127;BME280;56688;50.234;19.292;2023-04-19T02:44:35;98583.59;;;10.21;81.57
69127;BME280;56688;50.234;19.292;2023-04-19T02:47:02;98586.63;;;10.21;81.81
69127;BME280;56688;50.234;19.292;2023-04-19T02:49:29;98577.95;;;10.20;81.84
69127;BME280;56688;50.234;19.292;2023-04-19T02:52:00;98572.88;;;10.18;81.78
69127;BME280;56688;50.234;19.292;2023-04-19T02:54:28;98572.75;;;10.13;81.34
69127;BME280;56688;50.234;19.292;2023-04-19T02:56:55;98568.56;;;10.08;81.18
69127;BME280;56688;50.234;19.292;2023-04-19T02:59:23;98566.41;;;10.04;81.25
69127;BME280;56688;50.234;19.292;2023-04-19T03:01:51;98567.52;;;10.01;81.30
69127;BME280;56688;50.234;19.292;2023-04-19T03:04:18;98568.30;;;10.01;81.37
69127;BME280;56688;50.234;19.292;2023-04-19T03:06:45;98564.13;;;9.99;81.29
69127;BME280;56688;50.234;19.292;2023-04-19T03:09:12;98560.24;;;9.97;81.64
69127;BME280;56688;50.234;19.292;2023-04-19T03:11:39;98553.84;;;9.96;81.79
69127;BME280;56688;50.234;19.292;2023-04-19T03:14:06;98548.92;;;9.94;82.11
69127;BME280;56688;50.234;19.292;2023-04-19T03:16:33;98547.02;;;9.92;82.00
69127;BME280;56688;50.234;19.292;2023-04-19T03:19:00;98543.59;;;9.91;82.15
69127;BME280;56688;50.234;19.292;2023-04-19T03:21:29;98539.84;;;9.92;82.33
69127;BME280;56688;50.234;19.292;2023-04-19T03:23:56;98543.10;;;9.94;82.44
69127;BME280;56688;50.234;19.292;2023-04-19T03:26:23;98541.59;;;9.95;82.19
69127;BME280;56688;50.234;19.292;2023-04-19T03:28:52;98542.79;;;9.96;82.05
69127;BME280;56688;50.234;19.292;2023-04-19T03:31:24;98539.48;;;9.97;82.03
69127;BME280;56688;50.234;19.292;2023-04-19T03:33:52;98542.13;;;9.97;82.06
69127;BME280;56688;50.234;19.292;2023-04-19T03:36:21;98531.25;;;9.95;81.96
69127;BME280;56688;50.234;19.292;2023-04-19T03:38:50;98535.91;;;9.94;82.23
69127;BME280;56688;50.234;19.292;2023-04-19T03:43:49;98528.02;;;9.96;82.64
69127;BME280;56688;50.234;19.292;2023-04-19T03:46:16;98522.80;;;9.98;82.54
69127;BME280;56688;50.234;19.292;2023-04-19T03:48:43;98522.98;;;9.99;82.36
69127;BME280;56688;50.234;19.292;2023-04-19T03:51:11;98523.58;;;10.00;82.53
69127;BME280;56688;50.234;19.292;2023-04-19T03:53:39;98516.54;;;9.99;82.41
69127;BME280;56688;50.234;19.292;2023-04-19T03:56:06;98513.84;;;9.98;82.27
69127;BME280;56688;50.234;19.292;2023-04-19T03:58:33;98511.73;;;9.99;82.13
69127;BME280;56688;50.234;19.292;2023-04-19T04:01:04;98513.48;;;10.03;82.22
69127;BME280;56688;50.234;19.292;2023-04-19T04:03:34;98511.48;;;10.03;81.88
69127;BME280;56688;50.234;19.292;2023-04-19T04:06:02;98511.62;;;10.00;81.80
69127;BME280;56688;50.234;19.292;2023-04-19T04:08:29;98515.91;;;9.97;81.73
69127;BME280;56688;50.234;19.292;2023-04-19T04:10:56;98516.07;;;9.96;81.66
69127;BME280;56688;50.234;19.292;2023-04-19T04:13:23;98516.48;;;9.93;81.55
69127;BME280;56688;50.234;19.292;2023-04-19T04:16:00;98519.44;;;9.93;81.88
69127;BME280;56688;50.234;19.292;2023-04-19T04:18:27;98516.15;;;9.92;81.89
69127;BME280;56688;50.234;19.292;2023-04-19T04:20:54;98517.27;;;9.94;81.79
69127;BME280;56688;50.234;19.292;2023-04-19T04:23:21;98518.95;;;9.93;82.01
69127;BME280;56688;50.234;19.292;2023-04-19T04:25:58;98511.06;;;9.93;81.96
69127;BME280;56688;50.234;19.292;2023-04-19T04:28:34;98508.48;;;9.93;81.98
69127;BME280;56688;50.234;19.292;2023-04-19T04:31:01;98506.52;;;9.94;82.09
69127;BME280;56688;50.234;19.292;2023-04-19T04:33:29;98500.33;;;9.95;82.10
69127;BME280;56688;50.234;19.292;2023-04-19T04:35:56;98497.86;;;9.97;82.14
69127;BME280;56688;50.234;19.292;2023-04-19T04:38:26;98494.65;;;9.95;81.88
69127;BME280;56688;50.234;19.292;2023-04-19T04:40:53;98494.39;;;9.93;81.85
69127;BME280;56688;50.234;19.292;2023-04-19T04:43:23;98491.55;;;9.93;81.82
69127;BME280;56688;50.234;19.292;2023-04-19T04:45:51;98486.29;;;9.92;81.87
69127;BME280;56688;50.234;19.292;2023-04-19T04:48:21;98488.30;;;9.95;81.92
69127;BME280;56688;50.234;19.292;2023-04-19T04:50:48;98485.63;;;9.95;81.86
69127;BME280;56688;50.234;19.292;2023-04-19T04:53:16;98482.34;;;9.95;81.77
69127;BME280;56688;50.234;19.292;2023-04-19T04:55:44;98479.58;;;9.96;81.72
69127;BME280;56688;50.234;19.292;2023-04-19T04:58:11;98474.98;;;9.96;81.62
69127;BME280;56688;50.234;19.292;2023-04-19T05:00:50;98465.96;;;9.97;81.50
69127;BME280;56688;50.234;19.292;2023-04-19T05:03:17;98464.52;;;10.00;81.22
69127;BME280;56688;50.234;19.292;2023-04-19T05:05:47;98464.94;;;10.01;80.99
69127;BME280;56688;50.234;19.292;2023-04-19T05:08:15;98465.63;;;10.04;80.92
69127;BME280;56688;50.234;19.292;2023-04-19T05:10:43;98475.21;;;10.09;80.75
69127;BME280;56688;50.234;19.292;2023-04-19T05:13:11;98482.98;;;10.12;80.44
69127;BME280;56688;50.234;19.292;2023-04-19T05:15:40;98486.24;;;10.16;80.31
69127;BME280;56688;50.234;19.292;2023-04-19T05:18:07;98487.08;;;10.19;80.26
69127;BME280;56688;50.234;19.292;2023-04-19T05:20:34;98486.57;;;10.24;80.38
69127;BME280;56688;50.234;19.292;2023-04-19T05:23:06;98482.20;;;10.26;80.07
69127;BME280;56688;50.234;19.292;2023-04-19T05:25:33;98481.63;;;10.28;79.78
69127;BME280;56688;50.234;19.292;2023-04-19T05:28:01;98482.79;;;10.28;79.80
69127;BME280;56688;50.234;19.292;2023-04-19T05:30:35;98478.62;;;10.31;79.76
69127;BME280;56688;50.234;19.292;2023-04-19T05:33:03;98479.25;;;10.36;79.80
69127;BME280;56688;50.234;19.292;2023-04-19T05:35:31;98477.84;;;10.46;79.87
69127;BME280;56688;50.234;19.292;2023-04-19T05:37:57;98477.89;;;10.57;79.92
69127;BME280;56688;50.234;19.292;2023-04-19T05:40:24;98480.65;;;10.67;79.74
69127;BME280;56688;50.234;19.292;2023-04-19T05:42:51;98482.02;;;10.74;79.37
69127;BME280;56688;50.234;19.292;2023-04-19T05:45:20;98479.42;;;10.82;79.02
69127;BME280;56688;50.234;19.292;2023-04-19T05:47:47;98477.66;;;10.91;79.08
69127;BME280;56688;50.234;19.292;2023-04-19T05:50:31;98478.65;;;11.00;78.97
69127;BME280;56688;50.234;19.292;2023-04-19T05:53:17;98475.09;;;11.05;78.56
69127;BME280;56688;50.234;19.292;2023-04-19T05:55:44;98474.86;;;11.10;78.21
69127;BME280;56688;50.234;19.292;2023-04-19T05:58:14;98474.95;;;11.10;77.62
69127;BME280;56688;50.234;19.292;2023-04-19T06:00:40;98476.09;;;11.07;77.10
69127;BME280;56688;50.234;19.292;2023-04-19T06:03:08;98480.73;;;11.04;76.99
69127;BME280;56688;50.234;19.292;2023-04-19T06:05:36;98479.05;;;11.03;76.96
69127;BME280;56688;50.234;19.292;2023-04-19T06:08:03;98481.74;;;11.00;76.81
69127;BME280;56688;50.234;19.292;2023-04-19T06:10:30;98479.45;;;10.96;76.18
69127;BME280;56688;50.234;19.292;2023-04-19T06:13:17;98482.29;;;10.92;76.07
69127;BME280;56688;50.234;19.292;2023-04-19T06:15:46;98488.70;;;10.87;75.29
69127;BME280;56688;50.234;19.292;2023-04-19T06:18:13;98489.91;;;10.82;74.73
69127;BME280;56688;50.234;19.292;2023-04-19T06:20:45;98492.39;;;10.79;74.58
69127;BME280;56688;50.234;19.292;2023-04-19T06:23:12;98492.36;;;10.81;74.45
69127;BME280;56688;50.234;19.292;2023-04-19T06:25:40;98494.06;;;10.77;73.19
69127;BME280;56688;50.234;19.292;2023-04-19T06:28:07;98494.52;;;10.71;72.61
69127;BME280;56688;50.234;19.292;2023-04-19T06:30:34;98496.37;;;10.65;72.07
69127;BME280;56688;50.234;19.292;2023-04-19T06:33:01;98499.20;;;10.62;72.28
69127;BME280;56688;50.234;19.292;2023-04-19T06:35:28;98498.48;;;10.59;72.41
69127;BME280;56688;50.234;19.292;2023-04-19T06:37:55;98501.26;;;10.56;72.31
69127;BME280;56688;50.234;19.292;2023-04-19T06:40:22;98498.93;;;10.51;72.40
69127;BME280;56688;50.234;19.292;2023-04-19T06:42:48;98499.02;;;10.46;72.46
69127;BME280;56688;50.234;19.292;2023-04-19T06:45:17;98493.88;;;10.43;72.77
69127;BME280;56688;50.234;19.292;2023-04-19T06:47:44;98496.85;;;10.43;72.81
69127;BME280;56688;50.234;19.292;2023-04-19T06:50:11;98502.48;;;10.44;72.85
69127;BME280;56688;50.234;19.292;2023-04-19T06:52:38;98505.73;;;10.42;73.07
69127;BME280;56688;50.234;19.292;2023-04-19T06:55:06;98508.79;;;10.39;72.76
69127;BME280;56688;50.234;19.292;2023-04-19T06:57:33;98505.79;;;10.34;72.22
69127;BME280;56688;50.234;19.292;2023-04-19T07:00:00;98509.10;;;10.32;72.14
69127;BME280;56688;50.234;19.292;2023-04-19T07:02:27;98512.07;;;10.28;72.12
69127;BME280;56688;50.234;19.292;2023-04-19T07:04:54;98515.39;;;10.25;71.85
69127;BME280;56688;50.234;19.292;2023-04-19T07:07:21;98515.16;;;10.23;71.59
69127;BME280;56688;50.234;19.292;2023-04-19T07:09:48;98512.96;;;10.22;71.79
69127;BME280;56688;50.234;19.292;2023-04-19T07:12:15;98515.55;;;10.26;72.06
69127;BME280;56688;50.234;19.292;2023-04-19T07:14:42;98516.81;;;10.30;71.88
69127;BME280;56688;50.234;19.292;2023-04-19T07:17:09;98513.84;;;10.33;71.37
69127;BME280;56688;50.234;19.292;2023-04-19T07:19:35;98514.71;;;10.36;71.31
69127;BME280;56688;50.234;19.292;2023-04-19T07:22:02;98513.94;;;10.36;70.90
69127;BME280;56688;50.234;19.292;2023-04-19T07:24:29;98515.31;;;10.35;70.44
69127;BME280;56688;50.234;19.292;2023-04-19T07:26:56;98519.98;;;10.35;70.26
69127;BME280;56688;50.234;19.292;2023-04-19T07:29:23;98524.34;;;10.37;70.09
69127;BME280;56688;50.234;19.292;2023-04-19T07:31:50;98525.73;;;10.40;69.88
69127;BME280;56688;50.234;19.292;2023-04-19T07:34:17;98521.53;;;10.45;70.14
69127;BME280;56688;50.234;19.292;2023-04-19T07:36:44;98518.80;;;10.48;69.55
69127;BME280;56688;50.234;19.292;2023-04-19T07:39:12;98520.22;;;10.56;69.61
69127;BME280;56688;50.234;19.292;2023-04-19T07:41:38;98518.48;;;10.67;69.64
69127;BME280;56688;50.234;19.292;2023-04-19T07:44:05;98523.29;;;10.77;69.53
69127;BME280;56688;50.234;19.292;2023-04-19T07:46:32;98523.25;;;10.89;68.92
69127;BME280;56688;50.234;19.292;2023-04-19T07:48:59;98522.29;;;11.00;67.43
69127;BME280;56688;50.234;19.292;2023-04-19T07:51:27;98525.30;;;11.08;65.95
69127;BME280;56688;50.234;19.292;2023-04-19T07:53:54;98523.42;;;11.19;65.05
69127;BME280;56688;50.234;19.292;2023-04-19T07:56:21;98522.60;;;11.27;64.19
69127;BME280;56688;50.234;19.292;2023-04-19T07:58:49;98520.52;;;11.34;63.49
69127;BME280;56688;50.234;19.292;2023-04-19T08:01:33;98523.65;;;11.40;63.48
69127;BME280;56688;50.234;19.292;2023-04-19T08:03:59;98521.85;;;11.45;63.38
69127;BME280;56688;50.234;19.292;2023-04-19T08:06:27;98523.58;;;11.45;63.14
69127;BME280;56688;50.234;19.292;2023-04-19T08:08:56;98525.34;;;11.44;63.87
69127;BME280;56688;50.234;19.292;2023-04-19T08:11:22;98525.30;;;11.40;64.55
69127;BME280;56688;50.234;19.292;2023-04-19T08:13:50;98523.92;;;11.37;64.31
69127;BME280;56688;50.234;19.292;2023-04-19T08:16:37;98524.27;;;11.34;64.70
69127;BME280;56688;50.234;19.292;2023-04-19T08:19:24;98523.98;;;11.30;64.67
69127;BME280;56688;50.234;19.292;2023-04-19T08:21:51;98519.73;;;11.26;64.27
69127;BME280;56688;50.234;19.292;2023-04-19T08:24:18;98516.73;;;11.20;64.70
69127;BME280;56688;50.234;19.292;2023-04-19T08:26:45;98516.90;;;11.13;65.04
69127;BME280;56688;50.234;19.292;2023-04-19T08:29:20;98516.44;;;11.02;65.23
69127;BME280;56688;50.234;19.292;2023-04-19T08:31:48;98517.02;;;10.88;65.85
69127;BME280;56688;50.234;19.292;2023-04-19T08:34:14;98517.68;;;10.79;67.05
69127;BME280;56688;50.234;19.292;2023-04-19T08:36:42;98518.88;;;10.77;67.76
69127;BME280;56688;50.234;19.292;2023-04-19T08:39:26;98517.39;;;10.75;67.84
69127;BME280;56688;50.234;19.292;2023-04-19T08:42:04;98520.36;;;10.75;68.26
69127;BME280;56688;50.234;19.292;2023-04-19T08:44:44;98519.70;;;10.77;68.62
69127;BME280;56688;50.234;19.292;2023-04-19T08:47:33;98517.98;;;10.77;68.68
69127;BME280;56688;50.234;19.292;2023-04-19T08:50:03;98515.20;;;10.74;68.92
69127;BME280;56688;50.234;19.292;2023-04-19T08:52:50;98516.94;;;10.72;69.05
69127;BME280;56688;50.234;19.292;2023-04-19T08:55:28;98517.78;;;10.70;69.68
69127;BME280;56688;50.234;19.292;2023-04-19T08:57:56;98516.23;;;10.72;69.70
69127;BME280;56688;50.234;19.292;2023-04-19T09:00:24;98516.73;;;10.74;69.33
69127;BME280;56688;50.234;19.292;2023-04-19T09:02:52;98517.83;;;10.78;68.99
69127;BME280;56688;50.234;19.292;2023-04-19T09:05:22;98516.29;;;10.82;68.70
69127;BME280;56688;50.234;19.292;2023-04-19T09:07:50;98520.66;;;10.85;68.98
69127;BME280;56688;50.234;19.292;2023-04-19T09:10:18;98516.00;;;10.92;69.08
69127;BME280;56688;50.234;19.292;2023-04-19T09:13:03;98513.55;;;10.94;68.79
69127;BME280;56688;50.234;19.292;2023-04-19T09:15:36;98509.73;;;10.99;68.47
69127;BME280;56688;50.234;19.292;2023-04-19T09:18:06;98505.23;;;11.09;68.61
69127;BME280;56688;50.234;19.292;2023-04-19T09:20:36;98508.13;;;11.20;68.06
69127;BME280;56688;50.234;19.292;2023-04-19T09:23:05;98508.39;;;11.31;67.95
69127;BME280;56688;50.234;19.292;2023-04-19T09:25:33;98505.02;;;11.41;67.13
69127;BME280;56688;50.234;19.292;2023-04-19T09:28:21;98502.64;;;11.52;66.80
69127;BME280;56688;50.234;19.292;2023-04-19T09:30:48;98499.17;;;11.63;66.42
69127;BME280;56688;50.234;19.292;2023-04-19T09:33:37;98498.53;;;11.77;65.84
69127;BME280;56688;50.234;19.292;2023-04-19T09:36:07;98502.10;;;11.89;66.36
69127;BME280;56688;50.234;19.292;2023-04-19T09:38:49;98500.91;;;12.04;66.04
69127;BME280;56688;50.234;19.292;2023-04-19T09:41:16;98501.58;;;12.19;65.65
69127;BME280;56688;50.234;19.292;2023-04-19T09:43:43;98503.16;;;12.33;66.05
69127;BME280;56688;50.234;19.292;2023-04-19T09:49:19;98506.19;;;12.57;65.08
69127;BME280;56688;50.234;19.292;2023-04-19T09:52:03;98506.07;;;12.71;63.84
69127;BME280;56688;50.234;19.292;2023-04-19T09:54:40;98505.02;;;12.80;63.09
69127;BME280;56688;50.234;19.292;2023-04-19T09:57:07;98502.90;;;12.88;62.87
69127;BME280;56688;50.234;19.292;2023-04-19T09:59:34;98502.02;;;13.02;62.05
69127;BME280;56688;50.234;19.292;2023-04-19T10:02:03;98502.34;;;13.19;61.62
69127;BME280;56688;50.234;19.292;2023-04-19T10:04:30;98503.52;;;13.33;61.12
69127;BME280;56688;50.234;19.292;2023-04-19T10:07:17;98504.85;;;13.47;60.36
69127;BME280;56688;50.234;19.292;2023-04-19T10:09:57;98505.35;;;13.55;59.37
69127;BME280;56688;50.234;19.292;2023-04-19T10:12:46;98502.91;;;13.60;58.42
69127;BME280;56688;50.234;19.292;2023-04-19T10:15:35;98504.06;;;13.61;57.62
69127;BME280;56688;50.234;19.292;2023-04-19T10:18:18;98503.11;;;13.61;57.81
69127;BME280;56688;50.234;19.292;2023-04-19T10:20:49;98503.04;;;13.58;57.07
69127;BME280;56688;50.234;19.292;2023-04-19T10:23:19;98504.35;;;13.55;57.78
69127;BME280;56688;50.234;19.292;2023-04-19T10:25:47;98501.10;;;13.51;58.26
69127;BME280;56688;50.234;19.292;2023-04-19T10:28:15;98501.71;;;13.45;58.36
69127;BME280;56688;50.234;19.292;2023-04-19T10:30:59;98500.71;;;13.40;57.83
69127;BME280;56688;50.234;19.292;2023-04-19T10:33:33;98499.36;;;13.35;57.52
69127;BME280;56688;50.234;19.292;2023-04-19T10:36:01;98495.43;;;13.28;58.11
69127;BME280;56688;50.234;19.292;2023-04-19T10:41:06;98495.14;;;13.16;58.79
69127;BME280;56688;50.234;19.292;2023-04-19T10:46:14;98501.45;;;13.11;58.14
69127;BME280;56688;50.234;19.292;2023-04-19T10:48:50;98501.69;;;13.06;57.90
69127;BME280;56688;50.234;19.292;2023-04-19T10:51:25;98504.02;;;13.00;58.11
69127;BME280;56688;50.234;19.292;2023-04-19T10:53:57;98503.69;;;12.90;58.51
69127;BME280;56688;50.234;19.292;2023-04-19T10:59:29;98509.63;;;12.62;60.66
69127;BME280;56688;50.234;19.292;2023-04-19T11:01:58;98509.95;;;12.48;61.43
69127;BME280;56688;50.234;19.292;2023-04-19T11:06:59;98508.77;;;12.23;61.43
69127;BME280;56688;50.234;19.292;2023-04-19T11:09:32;98509.23;;;12.11;61.63
69127;BME280;56688;50.234;19.292;2023-04-19T11:12:03;98509.27;;;12.00;62.29
69127;BME280;56688;50.234;19.292;2023-04-19T11:14:33;98508.89;;;11.93;63.23
69127;BME280;56688;50.234;19.292;2023-04-19T11:17:03;98508.44;;;11.87;63.44
69127;BME280;56688;50.234;19.292;2023-04-19T11:19:41;98507.93;;;11.81;63.98
69127;BME280;56688;50.234;19.292;2023-04-19T11:22:09;98513.39;;;11.70;64.44
69127;BME280;56688;50.234;19.292;2023-04-19T11:24:35;98517.05;;;11.62;64.27
69127;BME280;56688;50.234;19.292;2023-04-19T11:27:06;98516.20;;;11.54;64.59
69127;BME280;56688;50.234;19.292;2023-04-19T11:29:33;98519.20;;;11.44;65.05
69127;BME280;56688;50.234;19.292;2023-04-19T11:32:00;98519.34;;;11.36;65.33
69127;BME280;56688;50.234;19.292;2023-04-19T11:34:27;98522.43;;;11.33;65.53
69127;BME280;56688;50.234;19.292;2023-04-19T11:36:54;98524.60;;;11.30;66.00
69127;BME280;56688;50.234;19.292;2023-04-19T11:39:21;98526.56;;;11.28;66.36
69127;BME280;56688;50.234;19.292;2023-04-19T11:41:48;98522.40;;;11.28;66.43
69127;BME280;56688;50.234;19.292;2023-04-19T11:44:16;98523.05;;;11.25;66.58
69127;BME280;56688;50.234;19.292;2023-04-19T11:47:02;98521.50;;;11.19;66.14
69127;BME280;56688;50.234;19.292;2023-04-19T11:49:32;98518.00;;;11.14;66.43
69127;BME280;56688;50.234;19.292;2023-04-19T11:52:01;98519.60;;;11.11;66.55
69127;BME280;56688;50.234;19.292;2023-04-19T11:54:32;98519.45;;;11.09;66.19
69127;BME280;56688;50.234;19.292;2023-04-19T11:57:00;98522.42;;;11.08;66.40
69127;BME280;56688;50.234;19.292;2023-04-19T11:59:31;98521.67;;;11.09;67.07
69127;BME280;56688;50.234;19.292;2023-04-19T12:02:13;98518.84;;;11.09;67.17
69127;BME280;56688;50.234;19.292;2023-04-19T12:04:41;98517.52;;;11.08;67.48
69127;BME280;56688;50.234;19.292;2023-04-19T12:07:09;98520.27;;;11.08;67.67
69127;BME280;56688;50.234;19.292;2023-04-19T12:09:36;98525.73;;;11.11;67.60
69127;BME280;56688;50.234;19.292;2023-04-19T12:12:04;98528.23;;;11.12;67.63
69127;BME280;56688;50.234;19.292;2023-04-19T12:14:32;98531.48;;;11.13;67.81
69127;BME280;56688;50.234;19.292;2023-04-19T12:17:09;98532.14;;;11.11;67.83
69127;BME280;56688;50.234;19.292;2023-04-19T12:19:42;98528.65;;;11.06;68.17
69127;BME280;56688;50.234;19.292;2023-04-19T12:22:12;98524.33;;;11.02;67.80
69127;BME280;56688;50.234;19.292;2023-04-19T12:24:40;98526.45;;;10.99;68.15
69127;BME280;56688;50.234;19.292;2023-04-19T12:27:07;98527.98;;;10.97;68.40
69127;BME280;56688;50.234;19.292;2023-04-19T12:29:37;98526.96;;;10.95;68.48
69127;BME280;56688;50.234;19.292;2023-04-19T12:32:05;98526.56;;;10.91;68.57
69127;BME280;56688;50.234;19.292;2023-04-19T12:34:32;98528.95;;;10.88;68.70
69127;BME280;56688;50.234;19.292;2023-04-19T12:36:59;98530.80;;;10.83;68.99
69127;BME280;56688;50.234;19.292;2023-04-19T12:39:26;98525.42;;;10.77;69.23
69127;BME280;56688;50.234;19.292;2023-04-19T12:41:55;98529.86;;;10.70;69.52
69127;BME280;56688;50.234;19.292;2023-04-19T12:44:22;98529.30;;;10.64;69.08
69127;BME280;56688;50.234;19.292;2023-04-19T12:46:49;98535.92;;;10.54;69.34
69127;BME280;56688;50.234;19.292;2023-04-19T12:49:17;98540.44;;;10.46;69.48
69127;BME280;56688;50.234;19.292;2023-04-19T12:51:45;98542.69;;;10.40;69.60
69127;BME280;56688;50.234;19.292;2023-04-19T12:54:14;98543.27;;;10.37;70.29
69127;BME280;56688;50.234;19.292;2023-04-19T12:56:41;98543.38;;;10.33;70.17
69127;BME280;56688;50.234;19.292;2023-04-19T12:59:07;98545.38;;;10.31;70.88
69127;BME280;56688;50.234;19.292;2023-04-19T13:01:34;98543.19;;;10.28;70.98
69127;BME280;56688;50.234;19.292;2023-04-19T13:04:02;98541.91;;;10.28;71.17
69127;BME280;56688;50.234;19.292;2023-04-19T13:06:29;98541.17;;;10.29;71.35
69127;BME280;56688;50.234;19.292;2023-04-19T13:08:56;98539.80;;;10.27;71.37
69127;BME280;56688;50.234;19.292;2023-04-19T13:11:27;98539.16;;;10.25;71.00
69127;BME280;56688;50.234;19.292;2023-04-19T13:13:54;98541.88;;;10.24;71.61
69127;BME280;56688;50.234;19.292;2023-04-19T13:16:21;98540.19;;;10.24;71.53
69127;BME280;56688;50.234;19.292;2023-04-19T13:18:48;98538.21;;;10.22;71.71
69127;BME280;56688;50.234;19.292;2023-04-19T13:21:17;98537.83;;;10.22;72.02